Terminal Aerodrome Forecast
Issued by NWS

Home | Current Version | Previous Version | Text Only | Print | Product List | Glossary On
Versions: 1 2 3 4 5 6 7 8 9 10 11 12 13 14 15 16 17 18 19
000
FTUS42 KGSP 010532
TAFGMU
TAF
KGMU 010532Z 0106/0206 29003KT P6SM FEW060
     FM011500 VRB03KT P6SM SCT060
     FM012300 22003KT P6SM SCT070=

USA.gov is the U.S. government's official web portal to all federal, state and local government web resources and services.